Aéroport int. de Victoria, Colombie-Britannique

Conditions des dernières 24 heures

Date / Heure
(HAP)
Conditions Temp
(°F)
Humidité
(%)
Point de rosée
(°F)
Vent
(mph)
Pression (pouces) Vis
(mi)
Humidex
02 juillet 2015
2:00 Généralement dégagé 63 72 54 ENE 2 30.0 30 *
1:00 Généralement dégagé 62 77 55 calme 30.0 30 *
0:00 Généralement dégagé 65 72 56 N 2 29.9 30 *
01 juillet 2015
23:00 Généralement dégagé 67 66 56 ONO 3 29.9 30 *
22:00 Généralement dégagé 67 64 55 SE 5 29.9 30 *
21:00 Ensoleillé 73 57 57 calme 29.9 30 78
20:00 Ensoleillé 82 39 55 SE 3 29.9 30 86
19:00 Ensoleillé 82 40 55 ESE 3 29.9 30 87
18:00 Ensoleillé 83   40 57 ESE 6 30.0 30 88
17:00 Généralement ensoleillé 83   39 56 ENE 6 30.0 30 89
16:00 Généralement ensoleillé 82 41 57 E 6 30.0 30 88
15:00 Généralement ensoleillé 82 40 56 ENE 7 30.0 30 88
14:00 Généralement ensoleillé 82 41 56 ESE 6 30.0 30 87
13:00 Généralement ensoleillé 79 44 56 NE 8 30.0 30 84
12:00 Généralement ensoleillé 78 45 55 NE 7 30.1 30 83
11:00 Généralement ensoleillé 79 44 55 NO 2 30.1 30 84
10:00 Généralement ensoleillé 74 48 53 ONO 3 30.1 30 78
9:00 Généralement ensoleillé 71 55 54 O 7 30.1 30 76
8:00 Ensoleillé 68 66 56 O 3 30.1 30 *
7:00 Généralement ensoleillé 62 80 56 calme 30.1 30 *
6:00 Généralement ensoleillé 57 89 54 SSO 3 30.1 30 *
5:00 Généralement dégagé 55   91 53 O 2 30.1 30 *
4:00 Généralement dégagé 56 87 52 SSE 2 30.1 30 *
3:00 Généralement dégagé 57 83 52 E 3 30.1 30 *
2:00 Généralement dégagé 58 85 53 calme 30.1 30 *
N.D. non disponible
↑ température la plus haute
↓ température la plus basse
* Valeur non significative.

Si vous désirez plus de données historiques sur les conditions météo, s.v.p. visitez Données climatologiques en ligne.

Ce que nous faisons

Date de modification :